Time;durP1;ratioP1;P1;durP2;ratioP2;P2;SDS_P1;SDS_P2;PMS_P1;PMS_P2;Temp;Humidity;BMP_temperature;BMP_pressure;BME280_temperature;BME280_humidity;BME280_pressure;Samples;Min_cycle;Max_cycle;Signal;HPM_P1;HPM_P2
2023/07/25 00:00:24;;;;;;;9.45;2.30;;;;;;;;;;5082004;28;20774;-71
2023/07/25 00:02:50;;;;;;;10.77;2.30;;;;;;;;;;5086233;28;20031;-71
2023/07/25 00:05:16;;;;;;;7.75;2.22;;;;;;;;;;5079770;28;20036;-71
2023/07/25 00:07:42;;;;;;;12.63;2.63;;;;;;;;;;5076053;28;20040;-71
2023/07/25 00:10:08;;;;;;;10.02;3.53;;;;;;;;;;5072846;28;20028;-71
2023/07/25 00:12:35;;;;;;;12.38;2.58;;;;;;;;;;5087935;28;20028;-71
2023/07/25 00:15:02;;;;;;;8.73;2.30;;;;;;;;;;5078126;28;20063;-71
2023/07/25 00:17:28;;;;;;;13.35;2.75;;;;;;;;;;5082847;28;20036;-71
2023/07/25 00:19:54;;;;;;;14.38;3.25;;;;;;;;;;5083348;28;20422;-71
2023/07/25 00:22:20;;;;;;;11.05;2.50;;;;;;;;;;5083792;28;20047;-72
2023/07/25 00:24:46;;;;;;;9.80;2.42;;;;;;;;;;5082085;28;20048;-72
2023/07/25 00:27:12;;;;;;;10.80;2.53;;;;;;;;;;5088426;28;20110;-70
2023/07/25 00:29:38;;;;;;;13.40;2.45;;;;;;;;;;5076937;28;20062;-71
2023/07/25 00:32:04;;;;;;;11.13;3.08;;;;;;;;;;5079427;28;20099;-70
2023/07/25 00:34:30;;;;;;;18.52;3.35;;;;;;;;;;5078132;28;20085;-70
2023/07/25 00:36:56;;;;;;;10.43;2.45;;;;;;;;;;5074026;28;20063;-71
2023/07/25 00:39:22;;;;;;;11.15;3.55;;;;;;;;;;5075089;28;20032;-71
2023/07/25 00:41:48;;;;;;;11.90;3.22;;;;;;;;;;5076381;28;20086;-71
2023/07/25 00:44:14;;;;;;;11.75;3.13;;;;;;;;;;5081048;28;20481;-70
2023/07/25 00:46:41;;;;;;;10.93;2.40;;;;;;;;;;5081989;28;20036;-70
2023/07/25 00:49:07;;;;;;;14.93;3.67;;;;;;;;;;5078394;28;20097;-70
2023/07/25 00:51:33;;;;;;;11.27;2.25;;;;;;;;;;5082300;28;20115;-70
2023/07/25 00:54:00;;;;;;;11.27;2.92;;;;;;;;;;5070301;28;20029;-71
2023/07/25 00:56:26;;;;;;;9.95;2.63;;;;;;;;;;5078323;28;20060;-71
2023/07/25 00:58:52;;;;;;;10.38;2.60;;;;;;;;;;5074277;28;20028;-70
2023/07/25 01:01:18;;;;;;;8.75;2.83;;;;;;;;;;5073697;28;20529;-71
2023/07/25 01:03:44;;;;;;;5.85;2.10;;;;;;;;;;5079869;28;20100;-70
2023/07/25 01:06:14;;;;;;;9.23;2.50;;;;;;;;;;5080249;28;20025;-71
2023/07/25 01:08:54;;;;;;;14.60;2.90;;;;;;;;;;5074171;28;20090;-72
2023/07/25 01:11:20;;;;;;;9.75;2.30;;;;;;;;;;5084357;28;20036;-71
2023/07/25 01:13:47;;;;;;;6.15;2.13;;;;;;;;;;5076863;28;20532;-71
2023/07/25 01:16:15;;;;;;;8.95;2.67;;;;;;;;;;5084766;28;20521;-71
2023/07/25 01:18:42;;;;;;;9.98;3.63;;;;;;;;;;5076317;28;20021;-71
2023/07/25 01:21:09;;;;;;;9.93;2.50;;;;;;;;;;5093977;28;20052;-71
2023/07/25 01:23:36;;;;;;;9.55;2.30;;;;;;;;;;5080120;28;20370;-71
2023/07/25 01:26:02;;;;;;;9.75;2.50;;;;;;;;;;5078308;28;20109;-71
2023/07/25 01:28:28;;;;;;;7.65;2.38;;;;;;;;;;5076101;28;20166;-70
2023/07/25 01:30:54;;;;;;;8.90;3.45;;;;;;;;;;5073531;28;20359;-70
2023/07/25 01:33:20;;;;;;;16.05;3.05;;;;;;;;;;5076338;28;20040;-70
2023/07/25 01:35:46;;;;;;;11.35;2.67;;;;;;;;;;5075951;28;20035;-70
2023/07/25 01:38:12;;;;;;;11.40;3.13;;;;;;;;;;5077287;28;20046;-71
2023/07/25 01:40:39;;;;;;;7.68;2.40;;;;;;;;;;5084616;28;20240;-71
2023/07/25 01:43:05;;;;;;;9.13;2.17;;;;;;;;;;5077439;28;20163;-71
2023/07/25 01:45:32;;;;;;;16.27;3.28;;;;;;;;;;5073206;28;20145;-71
2023/07/25 01:47:59;;;;;;;10.30;3.00;;;;;;;;;;5084389;28;20486;-71
2023/07/25 01:50:25;;;;;;;9.40;2.40;;;;;;;;;;5097309;27;20126;-71
2023/07/25 01:52:51;;;;;;;16.38;2.75;;;;;;;;;;5075568;28;20039;-70
2023/07/25 01:55:17;;;;;;;8.52;2.35;;;;;;;;;;5077996;28;20036;-71
2023/07/25 01:57:43;;;;;;;6.95;2.45;;;;;;;;;;5071928;28;20021;-70
2023/07/25 02:00:10;;;;;;;6.38;2.53;;;;;;;;;;5074490;28;20040;-70
2023/07/25 02:02:36;;;;;;;15.02;3.22;;;;;;;;;;5081299;28;20024;-71
2023/07/25 02:05:02;;;;;;;12.95;3.58;;;;;;;;;;5073229;28;20039;-71
2023/07/25 02:07:28;;;;;;;6.97;2.25;;;;;;;;;;5078451;28;20024;-71
2023/07/25 02:09:54;;;;;;;10.73;2.38;;;;;;;;;;5071488;28;20065;-71
2023/07/25 02:12:20;;;;;;;13.02;2.22;;;;;;;;;;5088287;28;20376;-71
2023/07/25 02:14:46;;;;;;;8.52;2.60;;;;;;;;;;5075079;28;20032;-71
2023/07/25 02:17:12;;;;;;;7.35;2.42;;;;;;;;;;5076753;28;20039;-71
2023/07/25 02:19:38;;;;;;;9.60;2.67;;;;;;;;;;5077988;28;20055;-70
2023/07/25 02:22:05;;;;;;;15.05;3.22;;;;;;;;;;5077452;28;20044;-70
2023/07/25 02:24:31;;;;;;;10.57;2.83;;;;;;;;;;5074405;28;20119;-71
2023/07/25 02:26:57;;;;;;;10.65;2.50;;;;;;;;;;5081827;28;20481;-70
2023/07/25 02:29:23;;;;;;;15.35;3.38;;;;;;;;;;5070327;28;20036;-70
2023/07/25 02:31:49;;;;;;;18.10;3.20;;;;;;;;;;5072582;28;20029;-71
2023/07/25 02:34:15;;;;;;;10.63;2.67;;;;;;;;;;5077161;28;20048;-70
2023/07/25 02:36:41;;;;;;;12.98;3.25;;;;;;;;;;5079603;28;20100;-70
2023/07/25 02:39:08;;;;;;;6.50;2.90;;;;;;;;;;5084255;28;20036;-71
2023/07/25 02:41:34;;;;;;;13.27;2.47;;;;;;;;;;5075490;28;20099;-71
2023/07/25 02:44:00;;;;;;;10.80;3.13;;;;;;;;;;5078506;28;20028;-70
2023/07/25 02:46:26;;;;;;;9.35;1.95;;;;;;;;;;5075566;28;20036;-70
2023/07/25 02:48:52;;;;;;;14.55;2.50;;;;;;;;;;5070688;28;20028;-71
2023/07/25 02:51:18;;;;;;;10.25;2.53;;;;;;;;;;5072537;28;20520;-70
2023/07/25 02:53:44;;;;;;;13.10;2.42;;;;;;;;;;5077131;28;20028;-71
2023/07/25 02:56:10;;;;;;;9.88;3.25;;;;;;;;;;5073168;28;20037;-71
2023/07/25 02:58:36;;;;;;;16.65;3.00;;;;;;;;;;5089352;28;20044;-71
2023/07/25 03:01:03;;;;;;;7.78;2.78;;;;;;;;;;5093850;28;20076;-70
2023/07/25 03:03:29;;;;;;;12.70;2.53;;;;;;;;;;5090961;28;20031;-71
2023/07/25 03:05:55;;;;;;;10.45;2.10;;;;;;;;;;5098811;28;20108;-71
2023/07/25 03:08:21;;;;;;;11.15;2.10;;;;;;;;;;5098984;28;20032;-71
2023/07/25 03:10:47;;;;;;;10.52;2.65;;;;;;;;;;5095716;28;20036;-71
2023/07/25 03:13:13;;;;;;;7.15;2.15;;;;;;;;;;5102866;28;20373;-71
2023/07/25 03:15:39;;;;;;;11.60;2.58;;;;;;;;;;5092083;28;20100;-72
2023/07/25 03:18:05;;;;;;;7.40;1.77;;;;;;;;;;5085164;28;20440;-71
2023/07/25 03:20:31;;;;;;;8.18;2.15;;;;;;;;;;5087729;28;20204;-70
2023/07/25 03:22:57;;;;;;;8.18;2.10;;;;;;;;;;5100966;28;20112;-70
2023/07/25 03:25:23;;;;;;;9.32;2.33;;;;;;;;;;5098471;28;20112;-70
2023/07/25 03:27:49;;;;;;;10.70;2.60;;;;;;;;;;5086918;28;20036;-70
2023/07/25 03:30:15;;;;;;;8.30;2.55;;;;;;;;;;5095721;28;20043;-71
2023/07/25 03:32:41;;;;;;;16.38;2.67;;;;;;;;;;5093904;28;20127;-71
2023/07/25 03:35:09;;;;;;;12.13;2.83;;;;;;;;;;5098034;28;20109;-71
2023/07/25 03:37:35;;;;;;;10.98;2.50;;;;;;;;;;5092963;28;20035;-71
2023/07/25 03:40:01;;;;;;;6.75;1.90;;;;;;;;;;5081006;28;20119;-71
2023/07/25 03:42:27;;;;;;;13.25;3.42;;;;;;;;;;5096804;28;20116;-71
2023/07/25 03:44:53;;;;;;;8.32;2.22;;;;;;;;;;5093420;28;20455;-71
2023/07/25 03:47:19;;;;;;;10.43;2.10;;;;;;;;;;5096160;28;20116;-70
2023/07/25 03:49:45;;;;;;;11.63;2.67;;;;;;;;;;5089680;28;20374;-70
2023/07/25 03:52:11;;;;;;;8.57;2.10;;;;;;;;;;5096888;28;20031;-70
2023/07/25 03:54:38;;;;;;;14.25;2.78;;;;;;;;;;5103051;28;20049;-71
2023/07/25 03:57:04;;;;;;;9.70;2.10;;;;;;;;;;5098450;28;20033;-69
2023/07/25 03:59:30;;;;;;;13.65;2.20;;;;;;;;;;5102843;28;20472;-70
2023/07/25 04:01:56;;;;;;;9.93;2.40;;;;;;;;;;5091994;28;20498;-70
2023/07/25 04:04:22;;;;;;;10.10;2.00;;;;;;;;;;5104790;28;20042;-71
2023/07/25 04:06:48;;;;;;;7.82;2.20;;;;;;;;;;5093878;28;20032;-71
2023/07/25 04:09:14;;;;;;;9.02;2.50;;;;;;;;;;5097614;28;20036;-71
2023/07/25 04:11:40;;;;;;;5.30;2.10;;;;;;;;;;5090438;28;20063;-71
2023/07/25 04:14:06;;;;;;;8.38;3.60;;;;;;;;;;5094506;28;20031;-70
2023/07/25 04:16:33;;;;;;;10.32;3.40;;;;;;;;;;5092163;28;20111;-71
2023/07/25 04:18:59;;;;;;;11.82;3.55;;;;;;;;;;5096708;28;20119;-70
2023/07/25 04:21:25;;;;;;;7.70;2.75;;;;;;;;;;5098552;28;20079;-71
2023/07/25 04:23:51;;;;;;;11.57;2.40;;;;;;;;;;5083179;28;20512;-72
2023/07/25 04:26:17;;;;;;;12.13;2.33;;;;;;;;;;5083908;28;20049;-72
2023/07/25 04:28:43;;;;;;;6.65;2.25;;;;;;;;;;5082913;28;20372;-71
2023/07/25 04:31:09;;;;;;;7.50;2.33;;;;;;;;;;5091759;28;20027;-74
2023/07/25 04:33:35;;;;;;;11.43;3.35;;;;;;;;;;5086940;28;20043;-74
2023/07/25 04:36:01;;;;;;;9.75;2.63;;;;;;;;;;5094741;28;20043;-74
2023/07/25 04:38:27;;;;;;;15.07;3.22;;;;;;;;;;5086659;28;20088;-74
2023/07/25 04:40:55;;;;;;;14.32;3.63;;;;;;;;;;5089875;28;20048;-74
2023/07/25 04:43:21;;;;;;;11.18;2.28;;;;;;;;;;5085698;28;20055;-74
2023/07/25 04:45:47;;;;;;;10.77;1.83;;;;;;;;;;5085099;28;20157;-74
2023/07/25 04:48:13;;;;;;;12.70;2.72;;;;;;;;;;5085137;28;20048;-71
2023/07/25 04:50:39;;;;;;;8.98;2.58;;;;;;;;;;5086339;28;20138;-70
2023/07/25 04:53:06;;;;;;;5.47;1.85;;;;;;;;;;5087742;28;20032;-71
2023/07/25 04:55:32;;;;;;;8.10;2.00;;;;;;;;;;5086579;28;20536;-72
2023/07/25 04:57:58;;;;;;;203.68;138.23;;;;;;;;;;5086941;28;20493;-72
2023/07/25 05:00:24;;;;;;;14.52;6.40;;;;;;;;;;5085235;28;20041;-72
2023/07/25 05:02:50;;;;;;;11.82;4.25;;;;;;;;;;5091837;28;20046;-72
2023/07/25 05:05:16;;;;;;;8.45;2.22;;;;;;;;;;5090883;28;20043;-72
2023/07/25 05:07:42;;;;;;;6.13;2.80;;;;;;;;;;5090137;28;20477;-72
2023/07/25 05:10:09;;;;;;;5.45;1.77;;;;;;;;;;5077428;28;20047;-72
2023/07/25 05:12:35;;;;;;;13.73;1.70;;;;;;;;;;5087221;28;20096;-71
2023/07/25 05:15:01;;;;;;;8.20;1.83;;;;;;;;;;5092653;28;20040;-71
2023/07/25 05:17:27;;;;;;;8.88;1.50;;;;;;;;;;5090699;28;20040;-70
2023/07/25 05:19:53;;;;;;;11.30;2.35;;;;;;;;;;5091592;28;20421;-71
2023/07/25 05:22:19;;;;;;;9.52;1.67;;;;;;;;;;5094149;28;21130;-71
2023/07/25 05:24:45;;;;;;;7.10;1.85;;;;;;;;;;5092208;28;20024;-71
2023/07/25 05:27:11;;;;;;;11.98;1.65;;;;;;;;;;5097035;28;20036;-71
2023/07/25 05:29:37;;;;;;;15.10;1.48;;;;;;;;;;5076039;28;20039;-71
2023/07/25 05:32:03;;;;;;;10.50;2.03;;;;;;;;;;5093932;28;20543;-72
2023/07/25 05:34:29;;;;;;;11.73;1.83;;;;;;;;;;5092211;28;20380;-71
2023/07/25 05:36:55;;;;;;;6.70;1.23;;;;;;;;;;5094118;28;20032;-71
2023/07/25 05:39:21;;;;;;;9.40;1.33;;;;;;;;;;5087554;28;20105;-71
2023/07/25 05:41:47;;;;;;;18.55;2.05;;;;;;;;;;5088613;28;20042;-72
2023/07/25 05:44:13;;;;;;;8.93;1.60;;;;;;;;;;5085362;28;20067;-71
2023/07/25 05:46:39;;;;;;;10.63;1.42;;;;;;;;;;5084355;28;20445;-72
2023/07/25 05:49:05;;;;;;;5.85;1.17;;;;;;;;;;5090561;28;20092;-73
2023/07/25 05:51:31;;;;;;;19.05;8.07;;;;;;;;;;5088731;28;20081;-71
2023/07/25 05:53:57;;;;;;;8.75;2.67;;;;;;;;;;5085888;28;20062;-71
2023/07/25 05:56:23;;;;;;;6.05;1.40;;;;;;;;;;5092309;28;20480;-71
2023/07/25 05:58:49;;;;;;;12.98;1.65;;;;;;;;;;5074516;28;20028;-70
2023/07/25 06:01:15;;;;;;;4.88;1.35;;;;;;;;;;5085909;28;20366;-71
2023/07/25 06:03:41;;;;;;;6.93;1.48;;;;;;;;;;5092518;28;20040;-70
2023/07/25 06:06:07;;;;;;;7.25;2.17;;;;;;;;;;5084251;28;20050;-72
2023/07/25 06:08:33;;;;;;;8.63;1.60;;;;;;;;;;5089304;28;20363;-71
2023/07/25 06:10:59;;;;;;;8.13;1.50;;;;;;;;;;5088537;28;20043;-73
2023/07/25 06:13:25;;;;;;;9.82;1.33;;;;;;;;;;5092708;28;20040;-72
2023/07/25 06:15:51;;;;;;;6.20;1.10;;;;;;;;;;5090007;28;20035;-72
2023/07/25 06:18:17;;;;;;;5.95;0.85;;;;;;;;;;5091290;28;20028;-72
2023/07/25 06:20:43;;;;;;;7.30;1.20;;;;;;;;;;5087303;28;20079;-71
2023/07/25 06:23:09;;;;;;;13.02;1.52;;;;;;;;;;5092498;28;20035;-72
2023/07/25 06:25:35;;;;;;;7.20;1.13;;;;;;;;;;5087537;28;20043;-72
2023/07/25 06:28:01;;;;;;;4.53;0.90;;;;;;;;;;5098457;28;20040;-71
2023/07/25 06:30:27;;;;;;;6.53;1.45;;;;;;;;;;5091101;28;20357;-72
2023/07/25 06:32:54;;;;;;;6.03;1.20;;;;;;;;;;5090698;28;20032;-71
2023/07/25 06:35:20;;;;;;;4.03;0.85;;;;;;;;;;5080787;28;20503;-71
2023/07/25 06:37:46;;;;;;;6.93;1.35;;;;;;;;;;5078336;28;20024;-71
2023/07/25 06:40:12;;;;;;;11.52;1.90;;;;;;;;;;5083949;28;20051;-71
2023/07/25 06:42:38;;;;;;;6.40;1.27;;;;;;;;;;5084229;28;20481;-70
2023/07/25 06:45:04;;;;;;;8.55;0.85;;;;;;;;;;5083318;28;20050;-75
2023/07/25 06:47:30;;;;;;;6.18;0.98;;;;;;;;;;5081945;28;20573;-77
2023/07/25 06:49:58;;;;;;;6.20;1.17;;;;;;;;;;5083101;28;20028;-72
2023/07/25 06:52:24;;;;;;;5.35;1.05;;;;;;;;;;5087254;28;20016;-72
2023/07/25 06:54:50;;;;;;;3.97;0.88;;;;;;;;;;5091507;28;20036;-72
2023/07/25 06:57:16;;;;;;;7.82;1.08;;;;;;;;;;5077771;28;20345;-73
2023/07/25 06:59:42;;;;;;;4.53;0.95;;;;;;;;;;5075507;28;20592;-73
2023/07/25 07:02:08;;;;;;;8.48;1.00;;;;;;;;;;5088386;28;20048;-72
2023/07/25 07:04:34;;;;;;;5.63;1.02;;;;;;;;;;5093283;28;20011;-72
2023/07/25 07:07:00;;;;;;;5.05;1.00;;;;;;;;;;5092414;28;20044;-74
2023/07/25 07:09:26;;;;;;;7.18;1.05;;;;;;;;;;5094028;28;20036;-73
2023/07/25 07:11:52;;;;;;;8.32;0.65;;;;;;;;;;5088933;28;20121;-73
2023/07/25 07:14:18;;;;;;;5.57;0.90;;;;;;;;;;5092116;28;20118;-72
2023/07/25 07:16:44;;;;;;;5.32;1.30;;;;;;;;;;5090648;28;20484;-72
2023/07/25 07:19:10;;;;;;;5.85;1.38;;;;;;;;;;5089201;28;20046;-72
2023/07/25 07:21:37;;;;;;;11.07;1.13;;;;;;;;;;5086363;28;20102;-73
2023/07/25 07:24:03;;;;;;;8.60;0.88;;;;;;;;;;5087860;28;20093;-72
2023/07/25 07:26:29;;;;;;;4.35;0.77;;;;;;;;;;5087985;28;20740;-72
2023/07/25 07:28:55;;;;;;;7.78;1.63;;;;;;;;;;5088049;28;20027;-73
2023/07/25 07:31:23;;;;;;;6.60;0.60;;;;;;;;;;5087230;28;20038;-73
2023/07/25 07:33:49;;;;;;;4.35;1.05;;;;;;;;;;5089566;28;20047;-73
2023/07/25 07:36:15;;;;;;;4.80;0.88;;;;;;;;;;5095090;28;20102;-74
2023/07/25 07:38:41;;;;;;;6.18;1.00;;;;;;;;;;5090237;28;20112;-74
2023/07/25 07:41:07;;;;;;;4.10;0.52;;;;;;;;;;5096201;28;20051;-73
2023/07/25 07:43:33;;;;;;;8.80;1.00;;;;;;;;;;5088957;28;20028;-73
2023/07/25 07:45:59;;;;;;;3.08;1.00;;;;;;;;;;5087189;28;20491;-73
2023/07/25 07:48:25;;;;;;;4.97;0.85;;;;;;;;;;5094196;28;22298;-73
2023/07/25 07:50:51;;;;;;;3.03;0.60;;;;;;;;;;5094712;28;20500;-72
2023/07/25 07:53:17;;;;;;;3.33;0.65;;;;;;;;;;5081475;28;20109;-71
2023/07/25 07:55:44;;;;;;;5.13;0.80;;;;;;;;;;5096451;28;20028;-72
2023/07/25 07:58:10;;;;;;;6.63;0.60;;;;;;;;;;5091787;28;20891;-71
2023/07/25 08:00:36;;;;;;;2.95;0.50;;;;;;;;;;5096963;28;20047;-72
2023/07/25 08:03:01;;;;;;;4.97;0.80;;;;;;;;;;5087188;28;20176;-72
2023/07/25 08:05:28;;;;;;;4.60;0.73;;;;;;;;;;5090259;28;20085;-73
2023/07/25 08:07:54;;;;;;;8.23;0.85;;;;;;;;;;5090464;28;20043;-73
2023/07/25 08:10:21;;;;;;;3.25;0.73;;;;;;;;;;5088899;28;20442;-73
2023/07/25 08:12:47;;;;;;;3.40;0.95;;;;;;;;;;5088707;28;20028;-73
2023/07/25 08:15:13;;;;;;;4.18;0.70;;;;;;;;;;5096361;28;20099;-73
2023/07/25 08:17:40;;;;;;;2.17;0.52;;;;;;;;;;5092165;28;20044;-73
2023/07/25 08:20:06;;;;;;;3.92;0.65;;;;;;;;;;5095367;28;20597;-72
2023/07/25 08:22:32;;;;;;;3.50;0.70;;;;;;;;;;5095743;28;20036;-71
2023/07/25 08:24:58;;;;;;;3.08;0.85;;;;;;;;;;5092847;28;20353;-72
2023/07/25 08:27:24;;;;;;;6.22;0.70;;;;;;;;;;5092416;28;20035;-73
2023/07/25 08:29:51;;;;;;;4.97;1.08;;;;;;;;;;5091708;28;20044;-74
2023/07/25 08:32:17;;;;;;;4.03;0.93;;;;;;;;;;5094725;28;20117;-73
2023/07/25 08:34:43;;;;;;;7.20;0.73;;;;;;;;;;5085262;28;20027;-73
2023/07/25 08:37:09;;;;;;;3.35;0.82;;;;;;;;;;5087432;28;20456;-73
2023/07/25 08:39:35;;;;;;;5.65;0.88;;;;;;;;;;5096058;28;20042;-73
2023/07/25 08:42:05;;;;;;;5.75;2.35;;;;;;;;;;5083181;28;20556;-74
2023/07/25 08:44:32;;;;;;;3.72;1.02;;;;;;;;;;5080987;28;20020;-75
2023/07/25 08:47:00;;;;;;;5.05;0.80;;;;;;;;;;5083063;28;20120;-73
2023/07/25 08:49:29;;;;;;;5.78;0.68;;;;;;;;;;5087442;28;20039;-72
2023/07/25 08:51:57;;;;;;;2.55;0.60;;;;;;;;;;5080564;28;20025;-73
2023/07/25 08:54:33;;;;;;;3.38;0.60;;;;;;;;;;5103901;28;20020;-73
2023/07/25 08:56:59;;;;;;;6.68;0.80;;;;;;;;;;5094152;28;20027;-73
2023/07/25 08:59:25;;;;;;;3.17;0.80;;;;;;;;;;5089003;28;20119;-72
2023/07/25 09:01:55;;;;;;;2.60;0.60;;;;;;;;;;5083608;28;20137;-73
2023/07/25 09:04:24;;;;;;;4.85;0.65;;;;;;;;;;5081223;28;20024;-73
2023/07/25 09:06:50;;;;;;;4.85;0.63;;;;;;;;;;5078430;28;20032;-73
2023/07/25 09:09:16;;;;;;;4.05;0.80;;;;;;;;;;5074135;28;20027;-73
2023/07/25 09:11:44;;;;;;;3.47;1.02;;;;;;;;;;5081711;28;20085;-73
2023/07/25 09:14:10;;;;;;;2.00;0.50;;;;;;;;;;5077862;28;20342;-72
2023/07/25 09:16:36;;;;;;;4.13;0.80;;;;;;;;;;5083646;28;20025;-72
2023/07/25 09:19:02;;;;;;;4.70;1.00;;;;;;;;;;5081887;28;20492;-72
2023/07/25 09:21:28;;;;;;;4.28;0.70;;;;;;;;;;5072757;28;20527;-72
2023/07/25 09:23:55;;;;;;;2.35;0.70;;;;;;;;;;5081543;28;20370;-72
2023/07/25 09:26:22;;;;;;;3.72;1.00;;;;;;;;;;5072380;28;20115;-72
2023/07/25 09:28:49;;;;;;;3.88;0.60;;;;;;;;;;5079655;28;20031;-72
2023/07/25 09:31:15;;;;;;;3.55;0.50;;;;;;;;;;5083694;28;20115;-73
2023/07/25 09:33:41;;;;;;;4.82;0.80;;;;;;;;;;5076085;28;20017;-72
2023/07/25 09:36:07;;;;;;;2.95;0.68;;;;;;;;;;5081222;28;20024;-72
2023/07/25 09:38:33;;;;;;;2.95;0.50;;;;;;;;;;5082916;28;20373;-72
2023/07/25 09:41:03;;;;;;;14.57;1.67;;;;;;;;;;5083837;28;20412;-72
2023/07/25 09:43:29;;;;;;;4.38;0.90;;;;;;;;;;5084034;28;20016;-72
2023/07/25 09:45:56;;;;;;;7.35;0.88;;;;;;;;;;5078265;28;20063;-72
2023/07/25 09:48:22;;;;;;;5.43;0.70;;;;;;;;;;5084510;28;20391;-72
2023/07/25 09:50:48;;;;;;;2.85;0.65;;;;;;;;;;5080319;28;20024;-73
2023/07/25 09:53:16;;;;;;;8.10;0.68;;;;;;;;;;5081536;28;20043;-73
2023/07/25 09:55:42;;;;;;;4.30;0.80;;;;;;;;;;5088469;28;20469;-72
2023/07/25 09:58:09;;;;;;;2.67;0.80;;;;;;;;;;5081606;28;20036;-73
2023/07/25 10:00:35;;;;;;;3.13;0.60;;;;;;;;;;5080399;28;20072;-73
2023/07/25 10:03:01;;;;;;;7.00;0.60;;;;;;;;;;5083631;28;20028;-72
2023/07/25 10:05:30;;;;;;;4.82;0.90;;;;;;;;;;5075472;28;20025;-73
2023/07/25 10:07:57;;;;;;;2.20;0.68;;;;;;;;;;5075932;28;20074;-73
2023/07/25 10:10:24;;;;;;;3.85;0.60;;;;;;;;;;5085487;28;20036;-73
2023/07/25 10:12:50;;;;;;;2.50;0.60;;;;;;;;;;5073217;28;20369;-73
2023/07/25 10:15:17;;;;;;;2.72;0.55;;;;;;;;;;5077332;28;20040;-72
2023/07/25 10:17:44;;;;;;;2.97;0.57;;;;;;;;;;5082661;28;20117;-72
2023/07/25 10:20:19;;;;;;;3.55;0.60;;;;;;;;;;5074576;28;20144;-74
2023/07/25 10:22:46;;;;;;;4.28;0.73;;;;;;;;;;5078694;28;20028;-72
2023/07/25 10:25:19;;;;;;;4.30;0.63;;;;;;;;;;5079336;28;20040;-72
2023/07/25 10:27:45;;;;;;;3.28;0.80;;;;;;;;;;5077806;28;20161;-72
2023/07/25 10:30:31;;;;;;;4.22;0.80;;;;;;;;;;5078609;28;20041;-73
2023/07/25 10:33:01;;;;;;;4.13;0.55;;;;;;;;;;5087473;28;20056;-72
2023/07/25 10:35:50;;;;;;;5.38;0.60;;;;;;;;;;5082543;28;20032;-72
2023/07/25 10:38:43;;;;;;;5.65;0.65;;;;;;;;;;5073819;28;20105;-72
2023/07/25 10:41:09;;;;;;;4.82;0.82;;;;;;;;;;5077153;28;20451;-72
2023/07/25 10:43:55;;;;;;;4.43;0.70;;;;;;;;;;5083620;28;20027;-72
2023/07/25 10:46:22;;;;;;;4.28;1.17;;;;;;;;;;5091616;28;20063;-72
2023/07/25 10:48:48;;;;;;;1.58;0.60;;;;;;;;;;5084905;28;20398;-72
2023/07/25 10:51:15;;;;;;;4.20;0.70;;;;;;;;;;5077410;28;20032;-74
2023/07/25 10:54:00;;;;;;;1.65;0.60;;;;;;;;;;5082305;28;20349;-73
2023/07/25 10:56:26;;;;;;;1.60;0.63;;;;;;;;;;5097327;28;20066;-74
2023/07/25 10:59:02;;;;;;;1.98;0.70;;;;;;;;;;5095561;28;20043;-74
2023/07/25 11:01:48;;;;;;;6.30;0.98;;;;;;;;;;5091841;28;20111;-75
2023/07/25 11:04:21;;;;;;;3.58;0.63;;;;;;;;;;5091794;28;20059;-75
2023/07/25 11:06:50;;;;;;;7.07;2.22;;;;;;;;;;5087919;28;20044;-75
2023/07/25 11:09:16;;;;;;;4.70;1.45;;;;;;;;;;5077050;28;20104;-75
2023/07/25 11:11:46;;;;;;;4.97;0.82;;;;;;;;;;5091405;28;20036;-73
2023/07/25 11:14:14;;;;;;;2.55;0.60;;;;;;;;;;5086089;28;20537;-73
2023/07/25 11:16:41;;;;;;;6.15;0.60;;;;;;;;;;5087589;28;20114;-73
2023/07/25 11:19:08;;;;;;;2.38;0.55;;;;;;;;;;5079076;28;20032;-74
2023/07/25 11:21:38;;;;;;;3.10;0.45;;;;;;;;;;5089725;28;20493;-74
2023/07/25 11:24:05;;;;;;;5.13;0.88;;;;;;;;;;5085041;28;20077;-74
2023/07/25 11:26:31;;;;;;;2.45;0.50;;;;;;;;;;5084482;28;20032;-73
2023/07/25 11:29:02;;;;;;;3.13;0.82;;;;;;;;;;5080197;28;21909;-72
2023/07/25 11:31:28;;;;;;;4.75;1.20;;;;;;;;;;5084016;28;20293;-71
2023/07/25 11:33:54;;;;;;;3.30;0.65;;;;;;;;;;5089189;28;20517;-73
2023/07/25 11:36:21;;;;;;;2.60;0.70;;;;;;;;;;5103338;28;20044;-71
2023/07/25 11:38:47;;;;;;;5.32;1.00;;;;;;;;;;5088564;28;20035;-72
2023/07/25 11:41:13;;;;;;;3.95;0.60;;;;;;;;;;5082592;28;20043;-73
2023/07/25 11:43:39;;;;;;;4.60;0.75;;;;;;;;;;5093668;28;20034;-72
2023/07/25 11:46:06;;;;;;;5.90;0.80;;;;;;;;;;5094688;28;20106;-73
2023/07/25 11:48:32;;;;;;;3.10;0.80;;;;;;;;;;5097865;28;20024;-73
2023/07/25 11:50:59;;;;;;;4.75;0.60;;;;;;;;;;5095452;28;20039;-73
2023/07/25 11:53:29;;;;;;;3.25;0.60;;;;;;;;;;5095813;28;20426;-73
2023/07/25 11:55:55;;;;;;;3.20;0.40;;;;;;;;;;5091517;28;20351;-73
2023/07/25 11:58:22;;;;;;;2.10;0.40;;;;;;;;;;5093222;28;20024;-74
2023/07/25 12:00:54;;;;;;;2.55;0.82;;;;;;;;;;5100494;28;20364;-74
2023/07/25 12:03:22;;;;;;;4.57;0.75;;;;;;;;;;5099752;28;20579;-74
2023/07/25 12:06:14;;;;;;;1.65;0.40;;;;;;;;;;5090144;28;20439;-74
2023/07/25 12:08:40;;;;;;;;;;;;;;;;;;5100084;28;20048;-73
2023/07/25 12:11:08;;;;;;;2.05;0.50;;;;;;;;;;5093383;28;20289;-73
2023/07/25 12:13:42;;;;;;;5.43;0.68;;;;;;;;;;5085749;28;20036;-73
2023/07/25 12:16:08;;;;;;;2.20;0.60;;;;;;;;;;5086752;28;20042;-73
2023/07/25 12:18:38;;;;;;;6.05;0.80;;;;;;;;;;5088798;28;20114;-73
2023/07/25 12:21:04;;;;;;;10.07;0.93;;;;;;;;;;5092615;28;20056;-73
2023/07/25 12:23:32;;;;;;;4.65;0.63;;;;;;;;;;5088542;28;20043;-74
2023/07/25 12:26:00;;;;;;;3.38;0.50;;;;;;;;;;5084169;28;20107;-71
2023/07/25 12:28:38;;;;;;;1.85;0.60;;;;;;;;;;5093190;28;20036;-72
2023/07/25 12:31:04;;;;;;;10.38;1.20;;;;;;;;;;5084653;28;20036;-72
2023/07/25 12:33:30;;;;;;;3.28;0.73;;;;;;;;;;5102449;28;20468;-73
2023/07/25 12:35:57;;;;;;;3.03;0.60;;;;;;;;;;5097353;28;20107;-72
2023/07/25 12:38:23;;;;;;;5.63;0.82;;;;;;;;;;5088160;28;20570;-72
2023/07/25 12:40:49;;;;;;;4.88;0.80;;;;;;;;;;5079990;28;20060;-71
2023/07/25 12:43:15;;;;;;;4.55;0.90;;;;;;;;;;5076085;28;20140;-71
2023/07/25 12:45:42;;;;;;;2.15;0.73;;;;;;;;;;5089405;28;20031;-72
2023/07/25 12:48:08;;;;;;;5.78;1.00;;;;;;;;;;5089978;28;20445;-71
2023/07/25 12:50:34;;;;;;;7.70;0.98;;;;;;;;;;5085853;28;20481;-71
2023/07/25 12:53:00;;;;;;;2.50;0.60;;;;;;;;;;5086977;28;20289;-71
2023/07/25 12:55:26;;;;;;;3.70;0.80;;;;;;;;;;5086171;28;20025;-70
2023/07/25 12:57:52;;;;;;;2.00;0.70;;;;;;;;;;5085146;28;20028;-74
2023/07/25 13:00:18;;;;;;;3.08;0.55;;;;;;;;;;5080383;28;20070;-72
2023/07/25 13:02:45;;;;;;;2.83;0.70;;;;;;;;;;5093816;28;20035;-77
2023/07/25 13:05:11;;;;;;;4.60;0.70;;;;;;;;;;5085950;28;20750;-77
2023/07/25 13:07:37;;;;;;;3.00;0.80;;;;;;;;;;5098568;28;20046;-75
2023/07/25 13:10:06;;;;;;;4.40;0.85;;;;;;;;;;5084560;28;20111;-77
2023/07/25 13:12:32;;;;;;;3.33;0.90;;;;;;;;;;5093103;28;20056;-77
2023/07/25 13:14:58;;;;;;;3.70;0.60;;;;;;;;;;5089984;28;20037;-76
2023/07/25 13:17:24;;;;;;;2.47;0.68;;;;;;;;;;5092948;28;20483;-78
2023/07/25 13:19:50;;;;;;;0.65;0.35;;;;;;;;;;5093873;28;20472;-77
2023/07/25 13:22:16;;;;;;;1.23;0.40;;;;;;;;;;5091009;28;20051;-78
2023/07/25 13:24:42;;;;;;;2.60;0.73;;;;;;;;;;5093586;28;20029;-76
2023/07/25 13:27:08;;;;;;;2.88;0.52;;;;;;;;;;5076897;28;20029;-76
2023/07/25 13:29:34;;;;;;;2.67;0.73;;;;;;;;;;5091959;27;20301;-77
2023/07/25 13:32:00;;;;;;;3.83;0.65;;;;;;;;;;5082414;28;20023;-75
2023/07/25 13:34:29;;;;;;;2.35;0.68;;;;;;;;;;5092486;28;20069;-76
2023/07/25 13:36:55;;;;;;;3.80;1.00;;;;;;;;;;5081635;28;20028;-76
2023/07/25 13:39:21;;;;;;;3.63;0.90;;;;;;;;;;5089148;28;20051;-76
2023/07/25 13:41:47;;;;;;;5.22;0.45;;;;;;;;;;5086173;28;20034;-75
2023/07/25 13:44:13;;;;;;;2.13;0.52;;;;;;;;;;5082018;28;20034;-72
2023/07/25 13:46:40;;;;;;;3.38;0.57;;;;;;;;;;5083765;28;20406;-73
2023/07/25 13:49:06;;;;;;;4.90;0.60;;;;;;;;;;5089318;28;20109;-74
2023/07/25 13:51:32;;;;;;;3.78;1.00;;;;;;;;;;5100101;27;20024;-73
2023/07/25 13:53:58;;;;;;;1.98;0.60;;;;;;;;;;5093904;28;20106;-73
2023/07/25 13:56:25;;;;;;;2.33;0.70;;;;;;;;;;5091502;28;20413;-73
2023/07/25 13:58:50;;;;;;;0.73;0.50;;;;;;;;;;5088109;28;20023;-71
2023/07/25 14:01:16;;;;;;;7.35;2.30;;;;;;;;;;5081082;28;20489;-74
2023/07/25 14:03:43;;;;;;;3.28;0.90;;;;;;;;;;5099186;28;20036;-78
2023/07/25 14:06:09;;;;;;;3.28;0.50;;;;;;;;;;5083819;28;20442;-77
2023/07/25 14:08:35;;;;;;;2.22;0.60;;;;;;;;;;5085741;28;20520;-72
2023/07/25 14:11:01;;;;;;;4.00;0.60;;;;;;;;;;5093571;28;20044;-72
2023/07/25 14:13:27;;;;;;;2.00;0.80;;;;;;;;;;5088819;28;20020;-72
2023/07/25 14:15:54;;;;;;;2.33;0.70;;;;;;;;;;5089645;28;20058;-72
2023/07/25 14:18:21;;;;;;;5.95;0.80;;;;;;;;;;5088144;28;20060;-72
2023/07/25 14:20:47;;;;;;;4.35;0.98;;;;;;;;;;5091825;28;20090;-72
2023/07/25 14:23:13;;;;;;;6.00;1.30;;;;;;;;;;5091120;28;20032;-72
2023/07/25 14:25:39;;;;;;;4.78;1.00;;;;;;;;;;5089776;28;20059;-72
2023/07/25 14:28:05;;;;;;;3.08;0.75;;;;;;;;;;5084209;28;20044;-73
2023/07/25 14:30:33;;;;;;;6.57;0.85;;;;;;;;;;5089879;28;20036;-72
2023/07/25 14:32:59;;;;;;;5.03;1.00;;;;;;;;;;5091750;28;20026;-73
2023/07/25 14:35:26;;;;;;;2.95;0.90;;;;;;;;;;5089829;28;20047;-73
2023/07/25 14:37:52;;;;;;;4.05;0.85;;;;;;;;;;5091636;28;20032;-72